createdAt,value
2017-11-12T00:02:05.070Z,100169.10
2017-11-12T00:04:31.971Z,100161.88
2017-11-12T00:06:58.811Z,100154.11
2017-11-12T00:09:26.434Z,100153.48
2017-11-12T00:11:53.284Z,100144.09
2017-11-12T00:14:20.164Z,100142.91
2017-11-12T00:16:47.030Z,100141.94
2017-11-12T00:19:13.868Z,100142.73
2017-11-12T00:21:41.163Z,100142.79
2017-11-12T00:24:08.826Z,100137.23
2017-11-12T00:26:35.776Z,100129.67
2017-11-12T00:29:02.630Z,100125.05
2017-11-12T00:31:29.561Z,100136.87
2017-11-12T00:33:56.454Z,100129.89
2017-11-12T00:36:24.082Z,100129.16
2017-11-12T00:38:51.036Z,100132.30
2017-11-12T00:41:18.683Z,100132.55
2017-11-12T00:43:45.548Z,100134.89
2017-11-12T00:46:12.437Z,100129.13
2017-11-12T00:48:39.298Z,100128.28
2017-11-12T00:51:06.423Z,100128.05
2017-11-12T00:53:33.999Z,100126.75
2017-11-12T00:56:00.859Z,100123.53
2017-11-12T00:58:27.702Z,100125.37
2017-11-12T01:00:54.603Z,100119.84
2017-11-12T01:03:21.494Z,100118.78
2017-11-12T01:05:48.333Z,100122.89
2017-11-12T01:08:15.227Z,100121.59
2017-11-12T01:10:42.137Z,100113.14
2017-11-12T01:13:09.011Z,100114.06
2017-11-12T01:15:35.918Z,100113.37
2017-11-12T01:18:02.763Z,100111.97
2017-11-12T01:20:29.618Z,100114.14
2017-11-12T01:22:56.448Z,100111.19
2017-11-12T01:25:23.345Z,100114.20
2017-11-12T01:27:50.229Z,100110.58
2017-11-12T01:30:17.159Z,100106.14
2017-11-12T01:32:44.132Z,100105.26
2017-11-12T01:35:11.787Z,100104.55
2017-11-12T01:37:38.711Z,100102.98
2017-11-12T01:40:05.606Z,100097.91
2017-11-12T01:42:32.543Z,100092.61
2017-11-12T01:44:59.448Z,100090.12
2017-11-12T01:47:26.308Z,100090.63
2017-11-12T01:49:53.185Z,100079.51
2017-11-12T01:52:20.061Z,100079.65
2017-11-12T01:54:46.969Z,100080.61
2017-11-12T01:57:14.443Z,100080.53
2017-11-12T01:59:41.628Z,100072.61
2017-11-12T02:02:08.590Z,100065.85
2017-11-12T02:04:35.474Z,100065.91
2017-11-12T02:07:02.343Z,100055.66
2017-11-12T02:09:29.212Z,100053.78
2017-11-12T02:11:56.120Z,100052.17
2017-11-12T02:14:22.967Z,100047.83
2017-11-12T02:16:49.854Z,100053.79
2017-11-12T02:19:16.797Z,100047.89
2017-11-12T02:21:43.856Z,100047.30
2017-11-12T02:24:11.892Z,100050.86
2017-11-12T02:26:38.814Z,100049.09
2017-11-12T02:29:05.682Z,100050.95
2017-11-12T02:31:32.635Z,100044.99
2017-11-12T02:33:59.635Z,100039.89
2017-11-12T02:36:26.605Z,100037.64
2017-11-12T02:38:53.537Z,100032.61
2017-11-12T02:41:20.448Z,100032.03
2017-11-12T02:43:47.391Z,100025.33
2017-11-12T02:46:15.071Z,100020.73
2017-11-12T02:48:42.002Z,100013.11
2017-11-12T02:51:08.969Z,100010.07
2017-11-12T02:53:35.921Z,100009.69
2017-11-12T02:56:02.856Z,100016.19
2017-11-12T02:58:30.446Z,100005.38
2017-11-12T03:00:57.659Z,100008.06
2017-11-12T03:03:24.585Z,100011.53
2017-11-12T03:05:51.499Z,100011.92
2017-11-12T03:08:18.409Z,100010.41
2017-11-12T03:10:45.282Z,100012.22
2017-11-12T03:13:12.180Z,100007.06
2017-11-12T03:15:39.839Z,100012.59
2017-11-12T03:18:06.707Z,100006.94
2017-11-12T03:20:33.615Z,100003.34
2017-11-12T03:23:00.487Z,99993.26
2017-11-12T03:25:27.422Z,99992.96
2017-11-12T03:27:55.164Z,99986.60
2017-11-12T03:30:22.832Z,99980.84
2017-11-12T03:32:49.722Z,99979.80
2017-11-12T03:35:16.577Z,99979.88
2017-11-12T03:37:43.415Z,99983.50
2017-11-12T03:40:11.058Z,99984.19
2017-11-12T03:42:37.898Z,99976.78
2017-11-12T03:45:04.817Z,99975.86
2017-11-12T03:47:31.666Z,99972.48
2017-11-12T03:49:58.568Z,99974.72
2017-11-12T03:52:25.501Z,99965.08
2017-11-12T03:54:52.347Z,99965.83
2017-11-12T03:57:19.300Z,99963.28
2017-11-12T03:59:46.196Z,99956.04
2017-11-12T04:02:13.079Z,99960.54
2017-11-12T04:04:39.926Z,99959.81
2017-11-12T04:07:06.820Z,99952.80
2017-11-12T04:09:34.460Z,99941.58
2017-11-12T04:12:01.335Z,99937.78
2017-11-12T04:14:28.194Z,99937.63
2017-11-12T04:16:55.087Z,99931.67
2017-11-12T04:19:21.994Z,99937.63
2017-11-12T04:21:48.928Z,99941.32
2017-11-12T04:24:15.805Z,99936.39
2017-11-12T04:26:42.710Z,99927.68
2017-11-12T04:29:09.581Z,99922.77
2017-11-12T04:31:36.396Z,99927.13
2017-11-12T04:34:03.257Z,99921.00
2017-11-12T04:36:30.196Z,99918.24
2017-11-12T04:38:57.047Z,99907.81
2017-11-12T04:41:23.907Z,99904.62
2017-11-12T04:43:50.811Z,99907.22
2017-11-12T04:46:17.657Z,99900.84
2017-11-12T04:48:44.543Z,99896.49
2017-11-12T04:51:11.472Z,99891.00
2017-11-12T04:53:38.352Z,99889.94
2017-11-12T04:56:05.995Z,99892.14
2017-11-12T04:58:32.966Z,99888.27
2017-11-12T05:01:00.608Z,99878.34
2017-11-12T05:03:27.513Z,99879.06
2017-11-12T05:05:54.431Z,99866.66
2017-11-12T05:08:22.059Z,99858.02
2017-11-12T05:10:48.947Z,99848.50
2017-11-12T05:13:15.826Z,99853.09
2017-11-12T05:15:42.693Z,99855.31
2017-11-12T05:18:09.552Z,99863.55
2017-11-12T05:20:37.165Z,99859.14
2017-11-12T05:23:04.037Z,99852.13
2017-11-12T05:25:30.889Z,99849.80
2017-11-12T05:27:57.790Z,99840.20
2017-11-12T05:30:24.660Z,99834.70
2017-11-12T05:32:51.529Z,99829.76
2017-11-12T05:35:18.401Z,99820.48
2017-11-12T05:37:45.238Z,99811.75
2017-11-12T05:40:12.125Z,99805.41
2017-11-12T05:42:38.996Z,99804.13
2017-11-12T05:45:05.859Z,99802.98
2017-11-12T05:47:32.718Z,99793.38
2017-11-12T05:49:59.675Z,99785.58
2017-11-12T05:52:26.502Z,99787.27
2017-11-12T05:54:53.384Z,99787.09
2017-11-12T05:57:20.274Z,99778.86
2017-11-12T05:59:47.131Z,99774.27
2017-11-12T06:02:13.974Z,99759.42
2017-11-12T06:04:40.848Z,99750.55
2017-11-12T06:07:07.754Z,99737.97
2017-11-12T06:09:34.667Z,99727.00
2017-11-12T06:12:01.568Z,99727.02
2017-11-12T06:14:28.473Z,99728.84
2017-11-12T06:16:55.341Z,99724.17
2017-11-12T06:19:22.290Z,99724.24
2017-11-12T06:21:49.187Z,99715.47
2017-11-12T06:24:16.091Z,99711.17
2017-11-12T06:26:43.016Z,99701.42
2017-11-12T06:29:09.910Z,99698.47
2017-11-12T06:31:36.786Z,99692.59
2017-11-12T06:34:03.649Z,99691.14
2017-11-12T06:36:30.544Z,99691.67
2017-11-12T06:38:57.703Z,99684.64
2017-11-12T06:41:24.560Z,99683.00
2017-11-12T06:43:51.530Z,99685.88
2017-11-12T06:46:18.374Z,99675.84
2017-11-12T06:48:45.252Z,99675.23
2017-11-12T06:51:12.111Z,99660.57
2017-11-12T06:53:38.946Z,99656.94
2017-11-12T06:56:06.710Z,99647.56
2017-11-12T06:58:33.572Z,99642.34
2017-11-12T07:01:00.435Z,99637.73
2017-11-12T07:03:28.048Z,99621.86
2017-11-12T07:05:54.898Z,99615.91
2017-11-12T07:08:21.800Z,99612.05
2017-11-12T07:10:48.661Z,99607.69
2017-11-12T07:13:15.531Z,99601.27
2017-11-12T07:15:42.477Z,99600.31
2017-11-12T07:18:09.338Z,99601.88
2017-11-12T07:20:36.227Z,99596.59
2017-11-12T07:23:03.121Z,99589.67
2017-11-12T07:25:29.978Z,99584.64
2017-11-12T07:27:57.586Z,99583.92
2017-11-12T07:30:24.443Z,99576.40
2017-11-12T07:32:51.334Z,99569.25
2017-11-12T07:35:18.185Z,99571.47
2017-11-12T07:37:45.087Z,99568.20
2017-11-12T07:40:11.982Z,99568.59
2017-11-12T07:42:38.874Z,99564.03
2017-11-12T07:45:06.007Z,99560.88
2017-11-12T07:47:32.853Z,99559.70
2017-11-12T07:50:00.809Z,99565.17
2017-11-12T07:52:27.747Z,99565.61
2017-11-12T07:54:54.674Z,99562.02
2017-11-12T07:57:21.529Z,99560.15
2017-11-12T07:59:48.441Z,99556.22
2017-11-12T08:02:15.394Z,99546.55
2017-11-12T08:04:42.980Z,99545.44
2017-11-12T08:07:09.897Z,99540.00
2017-11-12T08:09:36.728Z,99542.83
2017-11-12T08:12:04.405Z,99544.40
2017-11-12T08:14:31.251Z,99536.22
2017-11-12T08:16:58.097Z,99542.53
2017-11-12T08:19:25.020Z,99541.70
2017-11-12T08:21:51.871Z,99542.97
2017-11-12T08:24:19.650Z,99543.84
2017-11-12T08:26:46.511Z,99532.95
2017-11-12T08:29:13.784Z,99537.60
2017-11-12T08:31:40.631Z,99536.52
2017-11-12T08:34:07.568Z,99533.70
2017-11-12T08:36:34.472Z,99524.22
2017-11-12T08:39:01.377Z,99517.16
2017-11-12T08:41:28.224Z,99524.77
2017-11-12T08:43:55.088Z,99531.06
2017-11-12T08:46:22.074Z,99526.59
2017-11-12T08:48:48.971Z,99531.80
2017-11-12T08:51:15.909Z,99522.91
2017-11-12T08:53:42.877Z,99515.30
2017-11-12T08:56:09.836Z,99499.64
2017-11-12T08:58:36.712Z,99496.78
2017-11-12T09:01:04.038Z,99500.20
2017-11-12T09:03:30.945Z,99503.17
2017-11-12T09:05:57.775Z,99499.81
2017-11-12T09:08:24.661Z,99499.95
2017-11-12T09:10:51.580Z,99486.84
2017-11-12T09:13:18.507Z,99486.55
2017-11-12T09:15:45.374Z,99481.11
2017-11-12T09:18:12.222Z,99476.89
2017-11-12T09:20:39.175Z,99482.05
2017-11-12T09:23:06.099Z,99487.20
2017-11-12T09:25:32.926Z,99481.88
2017-11-12T09:27:59.801Z,99475.19
2017-11-12T09:30:27.413Z,99469.06
2017-11-12T09:32:54.262Z,99460.28
2017-11-12T09:35:22.308Z,99445.94
2017-11-12T09:37:49.230Z,99446.20
2017-11-12T09:40:16.796Z,99434.69
2017-11-12T09:42:43.699Z,99424.70
2017-11-12T09:45:11.449Z,99420.25
2017-11-12T09:47:38.412Z,99418.86
2017-11-12T09:50:05.515Z,99419.22
2017-11-12T09:52:32.361Z,99411.66
2017-11-12T09:54:59.329Z,99402.13
2017-11-12T09:57:26.918Z,99398.66
2017-11-12T09:59:53.767Z,99405.44
2017-11-12T10:02:20.599Z,99412.03
2017-11-12T10:04:47.458Z,99399.34
2017-11-12T10:07:14.324Z,99395.59
2017-11-12T10:09:41.404Z,99388.81
2017-11-12T10:12:08.249Z,99382.10
2017-11-12T10:14:35.084Z,99385.72
2017-11-12T10:17:01.976Z,99385.02
2017-11-12T10:19:28.811Z,99373.19
2017-11-12T10:21:55.636Z,99367.04
2017-11-12T10:24:24.434Z,99357.66
2017-11-12T10:26:51.270Z,99344.70
2017-11-12T10:29:18.120Z,99324.91
2017-11-12T10:31:44.973Z,99316.86
2017-11-12T10:34:11.793Z,99304.56
2017-11-12T10:36:39.377Z,99295.75
2017-11-12T10:39:06.976Z,99295.28
2017-11-12T10:41:34.020Z,99300.31
2017-11-12T10:44:00.892Z,99291.59
2017-11-12T10:46:27.716Z,99285.72
2017-11-12T10:48:54.588Z,99291.47
2017-11-12T10:51:21.457Z,99290.52
2017-11-12T10:53:49.071Z,99294.43
2017-11-12T10:56:15.935Z,99287.09
2017-11-12T10:58:43.282Z,99289.64
2017-11-12T11:01:11.377Z,99291.34
2017-11-12T11:03:39.213Z,99315.72
2017-11-12T11:06:06.073Z,99331.49
2017-11-12T11:08:32.925Z,99320.48
2017-11-12T11:10:59.780Z,99309.13
2017-11-12T11:13:26.604Z,99302.36
2017-11-12T11:15:53.425Z,99306.87
2017-11-12T11:18:20.245Z,99289.14
2017-11-12T11:20:47.823Z,99271.73
2017-11-12T11:23:14.648Z,99268.19
2017-11-12T11:25:42.239Z,99276.91
2017-11-12T11:28:09.798Z,99284.31
2017-11-12T11:30:36.639Z,99285.80
2017-11-12T11:33:03.533Z,99293.39
2017-11-12T11:35:30.860Z,99292.13
2017-11-12T11:37:57.805Z,99288.06
2017-11-12T11:40:24.674Z,99287.23
2017-11-12T11:42:51.542Z,99285.62
2017-11-12T11:45:18.375Z,99277.03
2017-11-12T11:47:45.238Z,99269.92
2017-11-12T11:50:12.100Z,99270.13
2017-11-12T11:52:38.947Z,99257.75
2017-11-12T11:55:06.600Z,99246.78
2017-11-12T11:57:33.526Z,99231.59
2017-11-12T12:00:00.400Z,99226.48
2017-11-12T12:02:27.294Z,99228.56
2017-11-12T12:04:54.881Z,99220.83
2017-11-12T12:07:22.487Z,99221.34
2017-11-12T12:09:49.328Z,99220.38
2017-11-12T12:12:17.045Z,99228.66
2017-11-12T12:14:43.881Z,99227.36
2017-11-12T12:17:10.719Z,99224.58
2017-11-12T12:19:38.300Z,99227.22
2017-11-12T12:22:05.906Z,99231.03
2017-11-12T12:24:32.740Z,99224.37
2017-11-12T12:27:00.363Z,99222.66
2017-11-12T12:29:27.197Z,99229.75
2017-11-12T12:31:54.104Z,99236.08
2017-11-12T12:34:20.975Z,99235.12
2017-11-12T12:36:47.882Z,99228.66
2017-11-12T12:39:14.739Z,99221.25
2017-11-12T12:41:41.620Z,99223.55
2017-11-12T12:44:13.141Z,99213.43
2017-11-12T12:46:40.540Z,99217.38
2017-11-12T12:52:07.389Z,99205.03
2017-11-12T12:54:34.269Z,99205.36
2017-11-12T12:57:01.203Z,99198.02
2017-11-12T12:59:31.115Z,99205.12
2017-11-12T13:01:58.528Z,99210.19
2017-11-12T13:04:26.204Z,99205.98
2017-11-12T13:06:53.077Z,99209.23
2017-11-12T13:09:19.986Z,99210.25
2017-11-12T13:11:47.232Z,99207.27
2017-11-12T13:14:14.204Z,99206.06
2017-11-12T13:16:41.109Z,99201.23
2017-11-12T13:19:08.796Z,99191.30
2017-11-12T13:21:35.795Z,99188.47
2017-11-12T13:24:02.763Z,99185.58
2017-11-12T13:26:29.713Z,99193.13
2017-11-12T13:28:57.412Z,99182.39
2017-11-12T13:31:24.263Z,99186.19
2017-11-12T13:33:51.197Z,99186.51
2017-11-12T13:36:18.101Z,99180.98
2017-11-12T13:38:45.021Z,99173.53
2017-11-12T13:41:11.940Z,99175.02
2017-11-12T13:43:40.503Z,99171.31
2017-11-12T13:46:10.308Z,99174.41
2017-11-12T13:48:37.261Z,99179.48
2017-11-12T13:51:04.910Z,99177.84
2017-11-12T13:53:31.892Z,99172.08
2017-11-12T13:55:58.768Z,99183.45
2017-11-12T13:58:25.653Z,99188.15
2017-11-12T14:00:53.294Z,99186.34
2017-11-12T14:03:20.216Z,99186.70
2017-11-12T14:05:47.090Z,99190.28
2017-11-12T14:08:13.998Z,99183.22
2017-11-12T14:10:40.875Z,99189.30
2017-11-12T14:13:07.757Z,99191.48
2017-11-12T14:15:34.675Z,99184.91
2017-11-12T14:18:04.222Z,99184.67
2017-11-12T14:20:31.970Z,99181.17
2017-11-12T14:22:59.541Z,99182.47
2017-11-12T14:25:26.729Z,99183.75
2017-11-12T14:27:54.343Z,99187.72
2017-11-12T14:30:22.004Z,99190.44
2017-11-12T14:32:49.191Z,99187.59
2017-11-12T14:35:16.957Z,99174.22
2017-11-12T14:37:45.300Z,99185.23
2017-11-12T14:40:13.224Z,99191.86
2017-11-12T14:42:40.136Z,99189.92
2017-11-12T14:45:07.068Z,99189.36
2017-11-12T14:47:33.923Z,99192.22
2017-11-12T14:50:00.781Z,99196.77
2017-11-12T14:52:27.637Z,99196.91
2017-11-12T14:54:54.498Z,99197.97
2017-11-12T14:57:22.199Z,99195.64
2017-11-12T14:59:49.785Z,99201.64
2017-11-12T15:02:17.738Z,99206.82
2017-11-12T15:04:45.339Z,99206.23
2017-11-12T15:07:12.343Z,99208.91
2017-11-12T15:09:40.320Z,99210.19
2017-11-12T15:12:07.860Z,99207.00
2017-11-12T15:14:34.760Z,99214.85
2017-11-12T15:17:01.992Z,99218.47
2017-11-12T15:19:28.864Z,99221.47
2017-11-12T15:21:55.713Z,99218.95
2017-11-12T15:24:22.603Z,99221.36
2017-11-12T15:26:50.274Z,99219.59
2017-11-12T15:29:18.049Z,99230.59
2017-11-12T15:31:45.678Z,99229.88
2017-11-12T15:34:13.282Z,99228.91
2017-11-12T15:36:40.149Z,99236.97
2017-11-12T15:39:07.005Z,99239.59
2017-11-12T15:41:33.931Z,99245.56
2017-11-12T15:44:00.774Z,99246.34
2017-11-12T15:46:28.402Z,99245.50
2017-11-12T15:48:55.261Z,99254.30
2017-11-12T15:51:22.095Z,99261.85
2017-11-12T15:53:48.958Z,99261.87
2017-11-12T15:56:15.865Z,99265.59
2017-11-12T15:58:42.725Z,99268.95
2017-11-12T16:01:09.600Z,99270.66
2017-11-12T16:03:36.517Z,99282.94
2017-11-12T16:06:03.423Z,99286.51
2017-11-12T16:08:30.276Z,99292.91
2017-11-12T16:10:57.092Z,99305.41
2017-11-12T16:13:24.792Z,99304.61
2017-11-12T16:15:51.748Z,99295.73
2017-11-12T16:18:18.942Z,99302.51
2017-11-12T16:20:46.017Z,99309.20
2017-11-12T16:23:13.137Z,99314.68
2017-11-12T16:25:40.025Z,99317.52
2017-11-12T16:28:07.003Z,99320.82
2017-11-12T16:30:33.939Z,99324.17
2017-11-12T16:33:00.823Z,99325.72
2017-11-12T16:35:27.702Z,99335.41
2017-11-12T16:37:54.588Z,99334.06
2017-11-12T16:40:21.441Z,99336.75
2017-11-12T16:42:49.104Z,99347.55
2017-11-12T16:45:16.033Z,99345.65
2017-11-12T16:47:42.863Z,99353.32
2017-11-12T16:50:10.072Z,99364.77
2017-11-12T16:52:36.915Z,99370.70
2017-11-12T16:55:03.832Z,99367.66
2017-11-12T16:57:30.681Z,99370.35
2017-11-12T16:59:57.556Z,99376.23
2017-11-12T17:02:24.530Z,99385.34
2017-11-12T17:04:52.128Z,99386.88
2017-11-12T17:07:18.993Z,99391.27
2017-11-12T17:09:46.496Z,99395.19
2017-11-12T17:12:13.861Z,99397.80
2017-11-12T17:14:40.797Z,99405.39
2017-11-12T17:17:07.677Z,99407.76
2017-11-12T17:19:34.663Z,99410.30
2017-11-12T17:22:01.681Z,99418.58
2017-11-12T17:24:29.259Z,99416.09
2017-11-12T17:26:56.824Z,99420.39
2017-11-12T17:29:24.464Z,99431.59
2017-11-12T17:31:51.349Z,99432.41
2017-11-12T17:34:18.430Z,99442.58
2017-11-12T17:36:46.218Z,99449.30
2017-11-12T17:39:13.866Z,99451.64
2017-11-12T17:41:40.702Z,99457.73
2017-11-12T17:44:07.579Z,99462.66
2017-11-12T17:46:34.437Z,99465.70
2017-11-12T17:49:01.453Z,99470.29
2017-11-12T17:51:28.373Z,99479.87
2017-11-12T17:53:55.349Z,99480.30
2017-11-12T17:56:22.301Z,99487.59
2017-11-12T17:58:49.241Z,99496.20
2017-11-12T18:01:16.575Z,99505.02
2017-11-12T18:03:43.537Z,99501.43
2017-11-12T18:06:11.492Z,99513.80
2017-11-12T18:08:39.725Z,99520.48
2017-11-12T18:11:07.337Z,99524.56
2017-11-12T18:13:35.869Z,99532.20
2017-11-12T18:16:03.017Z,99537.10
2017-11-12T18:18:29.898Z,99538.33
2017-11-12T18:20:57.184Z,99546.15
2017-11-12T18:23:25.445Z,99549.30
2017-11-12T18:25:53.094Z,99556.63
2017-11-12T18:28:21.237Z,99562.31
2017-11-12T18:30:48.718Z,99571.51
2017-11-12T18:33:16.392Z,99581.70
2017-11-12T18:35:44.899Z,99585.48
2017-11-12T18:38:13.724Z,99584.69
2017-11-12T18:40:42.461Z,99596.30
2017-11-12T18:43:12.100Z,99606.94
2017-11-12T18:45:40.921Z,99608.81
2017-11-12T18:48:09.880Z,99612.41
2017-11-12T18:50:38.877Z,99614.91
2017-11-12T18:53:07.599Z,99622.09
2017-11-12T18:55:38.277Z,99634.91
2017-11-12T18:58:09.862Z,99634.58
2017-11-12T19:00:54.380Z,99649.48
2017-11-12T19:03:25.841Z,99644.64
2017-11-12T19:06:01.165Z,99658.66
2017-11-12T19:08:33.301Z,99658.86
2017-11-12T19:11:03.091Z,99658.48
2017-11-12T19:13:33.314Z,99669.42
2017-11-12T19:16:01.637Z,99669.23
2017-11-12T19:18:30.584Z,99660.95
2017-11-12T19:21:00.687Z,99666.09
2017-11-12T19:23:31.746Z,99679.84
2017-11-12T19:26:02.638Z,99673.65
2017-11-12T19:28:31.737Z,99685.46
2017-11-12T19:31:00.966Z,99687.66
2017-11-12T19:33:29.983Z,99692.86
2017-11-12T19:35:59.162Z,99708.20
2017-11-12T19:38:28.791Z,99713.27
2017-11-12T19:40:58.417Z,99721.77
2017-11-12T19:43:27.934Z,99725.15
2017-11-12T19:45:56.868Z,99726.80
2017-11-12T19:48:25.836Z,99734.47
2017-11-12T19:50:54.774Z,99748.73
2017-11-12T19:53:23.814Z,99749.34
2017-11-12T19:55:52.634Z,99753.03
2017-11-12T19:58:21.584Z,99763.50
2017-11-12T20:00:51.354Z,99771.02
2017-11-12T20:03:21.640Z,99773.98
2017-11-12T20:05:50.594Z,99779.80
2017-11-12T20:08:19.435Z,99776.66
2017-11-12T20:10:48.318Z,99776.40
2017-11-12T20:13:16.886Z,99783.89
2017-11-12T20:15:46.592Z,99788.39
2017-11-12T20:18:15.323Z,99791.02
2017-11-12T20:20:43.121Z,99794.77
2017-11-12T20:23:11.016Z,99799.53
2017-11-12T20:25:38.683Z,99794.77
2017-11-12T20:28:06.192Z,99804.54
2017-11-12T20:30:33.616Z,99808.55
2017-11-12T20:33:01.641Z,99818.52
2017-11-12T20:35:28.579Z,99818.40
2017-11-12T20:37:56.032Z,99828.45
2017-11-12T20:40:23.114Z,99831.27
2017-11-12T20:42:51.423Z,99831.19
2017-11-12T20:45:18.415Z,99837.72
2017-11-12T20:47:45.917Z,99846.16
2017-11-12T20:50:12.936Z,99841.55
2017-11-12T20:52:41.765Z,99843.99
2017-11-12T20:55:09.470Z,99846.27
2017-11-12T20:57:37.132Z,99853.27
2017-11-12T21:00:04.142Z,99854.40
2017-11-12T21:02:31.085Z,99856.22
2017-11-12T21:05:02.595Z,99860.23
2017-11-12T21:07:29.557Z,99870.92
2017-11-12T21:09:57.536Z,99874.11
2017-11-12T21:12:24.510Z,99875.91
2017-11-12T21:14:51.506Z,99879.20
2017-11-12T21:17:18.460Z,99884.88
2017-11-12T21:19:46.389Z,99882.98
2017-11-12T21:22:19.355Z,99891.54
2017-11-12T21:24:47.999Z,99894.57
2017-11-12T21:27:17.912Z,99900.52
2017-11-12T21:29:58.286Z,99904.29
2017-11-12T21:32:28.697Z,99902.77
2017-11-12T21:35:00.530Z,99904.36
2017-11-12T21:37:29.363Z,99910.99
2017-11-12T21:39:56.377Z,99911.06
2017-11-12T21:42:23.258Z,99910.05
2017-11-12T21:44:50.242Z,99914.97
2017-11-12T21:47:17.196Z,99925.23
2017-11-12T21:49:44.089Z,99923.19
2017-11-12T21:52:10.982Z,99933.17
2017-11-12T21:54:38.589Z,99933.45
2017-11-12T21:57:05.508Z,99935.86
2017-11-12T21:59:32.447Z,99940.50
2017-11-12T22:01:59.292Z,99931.66
2017-11-12T22:04:26.228Z,99943.30
2017-11-12T22:06:53.860Z,99946.64
2017-11-12T22:09:20.737Z,99953.41
2017-11-12T22:11:47.618Z,99961.37
2017-11-12T22:14:15.211Z,99960.39
2017-11-12T22:16:42.827Z,99962.52
2017-11-12T22:19:09.723Z,99968.11
2017-11-12T22:21:36.611Z,99975.00
2017-11-12T22:24:04.189Z,99981.33
2017-11-12T22:26:31.753Z,99989.44
2017-11-12T22:28:59.335Z,99996.60
2017-11-12T22:31:26.971Z,99994.15
2017-11-12T22:33:53.830Z,99999.98
2017-11-12T22:36:20.700Z,100009.16
2017-11-12T22:38:47.568Z,100017.47
2017-11-12T22:41:14.416Z,100027.38
2017-11-12T22:43:41.294Z,100020.88
2017-11-12T22:46:08.135Z,100028.45
2017-11-12T22:48:35.033Z,100040.86
2017-11-12T22:51:01.881Z,100049.59
2017-11-12T22:53:28.767Z,100045.75
2017-11-12T22:55:56.376Z,100052.98
2017-11-12T22:58:23.257Z,100057.44
2017-11-12T23:00:56.166Z,100052.91
2017-11-12T23:03:23.150Z,100058.64
2017-11-12T23:05:49.998Z,100063.16
2017-11-12T23:08:16.850Z,100067.42
2017-11-12T23:10:43.673Z,100073.84
2017-11-12T23:13:10.514Z,100082.36
2017-11-12T23:15:38.075Z,100085.92
2017-11-12T23:18:06.592Z,100091.66
2017-11-12T23:20:33.464Z,100091.47
2017-11-12T23:23:01.152Z,100092.66
2017-11-12T23:25:28.007Z,100096.67
2017-11-12T23:27:55.635Z,100095.89
2017-11-12T23:30:22.467Z,100096.06
2017-11-12T23:32:49.572Z,100095.92
2017-11-12T23:35:16.409Z,100098.52
2017-11-12T23:37:43.300Z,100090.69
2017-11-12T23:40:10.153Z,100092.53
2017-11-12T23:42:38.383Z,100101.70
2017-11-12T23:45:05.315Z,100105.35
2017-11-12T23:47:32.209Z,100106.91
2017-11-12T23:49:59.820Z,100108.08
2017-11-12T23:52:26.847Z,100106.54
2017-11-12T23:54:53.677Z,100108.91
2017-11-12T23:57:20.500Z,100111.02
2017-11-12T23:59:47.571Z,100112.94
